Lambert St Louis International Airport
KSTL : rendu visible

Aérodrome :











RETROUVEZ-NOUS SUR...

 
LOGIN :

S'inscrire | Disclaimer

   EN    FR    IT 

 









Légende :    VFR   VFR Marginal   IFR   IFR Intensif   IFR Très Intensif
Visi : 
Plafond : 
>= 8 km
>= 3000ft
5 à 8 km
1000 à 3000 ft
1500m à 5 km
500 à 1000 ft
800 à 1500m
200 à 500 ft
< 800m
< 200 ft
Symboles :   Orages  Brouillard  Fortes neiges  Fortes précipitations  Vent > 20 kt






- Altitude de l'aérodrome : 618 ft
- Code IATA : STL


KSTL - Lambert St Louis International

DERNIER METAR :
  • 162251Z 11007KT 10SM SCT180 SCT250 06/M01 A3020 RMK AO2 SLP234 T00611006

METARs EXPIRÉS :
  • 162151Z 11007KT 10SM FEW170 BKN220 08/00 A3021 RMK AO2 SLP237 T00830000
  • 162051Z 13007KT 10SM FEW150 BKN220 08/M01 A3022 RMK AO2 SLP243 T00831006 56023

TAF KSTL
Valide du 16 à 21h jusqu'au 18 à 00h UTC


162051Z 1621/1724 15004KT P6SM BKN200
FM171200 VRB04KT P6SM OVC100
FM171800 19005KT P6SM VCSH OVC150
FM172100 VRB03KT 6SM -RA OVC040



MET'MAP, la Météo Aéronautique d'un coup d'oeil ! - Copyright ORBIFLY Décembre 2007 - Disclaimer

ORBIFLY MET'MAP TEAM :

Programmation & Développement : Alexandra Zaïnal
Conception & Développement : Baudouin d'Aumeries
Co-Programmation & Développement : Marc-Olivier Méhu
Soutien technique & logistique : Manuel Goepfert

Contact : metmap@orbifly.com




SOURCES & CREDITS :

   NOAA       Earth
Advisory